Time;durP1;ratioP1;P1;durP2;ratioP2;P2;SDS_P1;SDS_P2;PMS_P1;PMS_P2;Temp;Humidity;BMP_temperature;BMP_pressure;BME280_temperature;BME280_humidity;BME280_pressure;Samples;Min_cycle;Max_cycle;Signal;HPM_P1;HPM_P2
2021/06/18 00:00:17;;;;;;;;;;;22.60;99.90;;;;;;5095405;28;19904;-80
2021/06/18 00:02:46;;;;;;;;;;;22.60;99.90;;;;;;5094458;28;19907;-79
2021/06/18 00:05:12;;;;;;;;;;;22.60;99.90;;;;;;5093425;28;20352;-79
2021/06/18 00:07:37;;;;;;;;;;;22.60;99.90;;;;;;5094548;28;19904;-78
2021/06/18 00:10:07;;;;;;;;;;;22.50;99.90;;;;;;5092767;28;19914;-79
2021/06/18 00:12:32;;;;;;;;;;;22.50;99.90;;;;;;5094473;28;19946;-79
2021/06/18 00:14:59;;;;;;;;;;;22.60;99.90;;;;;;5093204;28;19935;-78
2021/06/18 00:17:25;;;;;;;;;;;22.60;99.90;;;;;;5092918;28;20341;-79
2021/06/18 00:19:51;;;;;;;;;;;22.50;99.90;;;;;;5092671;28;19950;-79
2021/06/18 00:22:16;;;;;;;;;;;22.50;99.90;;;;;;5092819;28;19904;-79
2021/06/18 00:24:42;;;;;;;;;;;22.40;99.90;;;;;;5092548;28;19976;-80
2021/06/18 00:27:07;;;;;;;;;;;22.40;99.90;;;;;;5092628;28;19909;-80
2021/06/18 00:29:32;;;;;;;;;;;22.30;99.90;;;;;;5091734;28;19997;-79
2021/06/18 00:31:58;;;;;;;;;;;22.30;99.90;;;;;;5092989;28;19904;-79
2021/06/18 00:34:23;;;;;;;;;;;22.30;99.90;;;;;;5092577;28;19904;-79
2021/06/18 00:36:49;;;;;;;;;;;22.20;99.90;;;;;;5092659;28;19935;-79
2021/06/18 00:39:14;;;;;;;;;;;22.20;99.90;;;;;;5092150;28;19903;-79
2021/06/18 00:41:40;;;;;;;;;;;22.20;99.90;;;;;;5093811;28;20290;-80
2021/06/18 00:44:05;;;;;;;;;;;22.20;99.90;;;;;;5092555;28;20166;-80
2021/06/18 00:46:31;;;;;;;;;;;22.10;99.90;;;;;;5093625;28;19947;-80
2021/06/18 00:48:57;;;;;;;;;;;22.10;99.90;;;;;;5092359;28;19908;-80
2021/06/18 00:51:23;;;;;;;;;;;22.10;99.90;;;;;;5092491;28;19999;-79
2021/06/18 00:53:49;;;;;;;;;;;22.00;99.90;;;;;;5093457;28;20317;-79
2021/06/18 00:56:15;;;;;;;;;;;22.00;99.90;;;;;;5092263;28;19908;-80
2021/06/18 00:58:40;;;;;;;;;;;21.90;99.90;;;;;;5091851;28;19995;-79
2021/06/18 01:01:06;;;;;;;;;;;21.90;99.90;;;;;;5093045;28;19912;-79
2021/06/18 01:03:31;;;;;;;11.23;7.00;;;21.90;99.90;;;;;;5091725;28;20339;-79
2021/06/18 01:05:57;;;;;;;8.40;6.87;;;21.80;99.90;;;;;;5091729;28;20027;-79
2021/06/18 01:08:41;;;;;;;9.87;7.40;;;21.80;99.90;;;;;;5091420;28;20092;-79
2021/06/18 01:11:24;;;;;;;;;;;21.80;99.90;;;;;;5091759;28;20031;-80
2021/06/18 01:14:09;;;;;;;;;;;21.80;99.90;;;;;;5091926;28;19911;-79
2021/06/18 01:16:34;;;;;;;;;;;21.70;99.90;;;;;;5093114;28;19926;-80
2021/06/18 01:19:04;;;;;;;;;;;21.70;99.90;;;;;;5091856;28;20359;-80
2021/06/18 01:21:34;;;;;;;;;;;21.70;99.90;;;;;;5091849;28;19912;-80
2021/06/18 01:24:23;;;;;;;;;;;21.70;99.90;;;;;;5091750;28;19911;-79
2021/06/18 01:26:57;;;;;;;;;;;21.60;99.90;;;;;;5092901;28;20630;-80
2021/06/18 01:29:24;;;;;;;;;;;21.60;99.90;;;;;;5091476;28;19904;-79
2021/06/18 01:31:50;;;;;;;;;;;21.60;99.90;;;;;;5091648;28;20355;-79
2021/06/18 01:34:21;;;;;;;;;;;21.60;99.90;;;;;;5093117;28;19904;-79
2021/06/18 01:36:48;;;;;;;;;;;21.60;99.90;;;;;;5091993;28;19915;-79
2021/06/18 01:39:14;;;;;;;;;;;21.50;99.90;;;;;;5091363;28;19998;-79
2021/06/18 01:41:40;;;;;;;;;;;21.50;99.90;;;;;;5091583;28;19911;-80
2021/06/18 01:44:06;;;;;;;;;;;21.50;99.90;;;;;;5091558;28;19912;-80
2021/06/18 01:46:34;;;;;;;;;;;21.50;99.90;;;;;;5091725;28;19904;-80
2021/06/18 01:49:02;;;;;;;;;;;21.60;99.90;;;;;;5091564;28;19911;-79
2021/06/18 01:51:29;;;;;;;;;;;21.60;99.90;;;;;;5091412;28;19908;-79
2021/06/18 01:53:56;;;;;;;;;;;21.50;99.90;;;;;;5091118;28;19905;-79
2021/06/18 01:56:22;;;;;;;;;;;21.60;99.90;;;;;;5091662;28;19913;-79
2021/06/18 01:58:49;;;;;;;;;;;21.70;99.90;;;;;;5091225;28;19914;-79
2021/06/18 02:01:15;;;;;;;;;;;21.50;99.90;;;;;;5092763;28;19935;-79
2021/06/18 02:03:42;;;;;;;;;;;21.50;99.90;;;;;;5091444;28;19953;-79
2021/06/18 02:06:08;;;;;;;;;;;21.50;99.90;;;;;;5091597;28;19994;-79
2021/06/18 02:08:34;;;;;;;;;;;21.40;99.90;;;;;;5091704;28;19947;-80
2021/06/18 02:11:00;;;;;;;;;;;21.40;99.90;;;;;;5091990;28;19907;-80
2021/06/18 02:13:27;;;;;;;;;;;21.40;99.90;;;;;;5093979;28;20260;-80
2021/06/18 02:15:53;;;;;;;;;;;21.30;99.90;;;;;;5097866;28;20325;-80
2021/06/18 02:18:20;;;;;;;;;;;21.50;99.90;;;;;;5099219;28;20041;-80
2021/06/18 02:20:46;;;;;;;;;;;21.70;99.90;;;;;;5100022;28;19915;-80
2021/06/18 02:23:12;;;;;;;;;;;21.80;99.90;;;;;;5098710;28;19912;-80
2021/06/18 02:25:38;;;;;;;;;;;21.70;99.90;;;;;;5098447;28;19958;-80
2021/06/18 02:28:04;;;;;;;;;;;21.80;99.90;;;;;;5097489;28;20390;-80
2021/06/18 02:30:30;;;;;;;;;;;21.70;99.90;;;;;;5100782;28;19966;-79
2021/06/18 02:32:57;;;;;;;;;;;21.60;99.90;;;;;;5098023;28;19912;-80
2021/06/18 02:35:23;;;;;;;;;;;21.50;99.90;;;;;;5098095;28;19908;-80
2021/06/18 02:37:49;;;;;;;;;;;21.50;99.90;;;;;;5100279;28;20389;-80
2021/06/18 02:40:15;;;;;;;;;;;21.60;99.90;;;;;;5101527;28;19908;-82
2021/06/18 02:42:40;;;;;;;;;;;21.60;99.90;;;;;;5104066;28;19940;-82
2021/06/18 02:45:06;;;;;;;;;;;21.60;99.90;;;;;;5100274;28;19927;-79
2021/06/18 02:47:47;;;;;;;;;;;21.50;99.90;;;;;;5095289;28;19921;-80
2021/06/18 02:50:15;;;;;;;;;;;21.40;99.90;;;;;;5094452;28;19919;-79
2021/06/18 02:52:49;;;;;;;;;;;21.30;99.90;;;;;;5094628;28;19908;-80
2021/06/18 02:55:21;;;;;;;;;;;21.30;99.90;;;;;;5094985;28;19915;-79
2021/06/18 02:57:54;;;;;;;;;;;21.10;99.90;;;;;;5094965;28;19908;-79
2021/06/18 03:00:20;;;;;;;;;;;21.10;99.90;;;;;;5094574;28;20325;-79
2021/06/18 03:02:49;;;;;;;;;;;21.10;99.90;;;;;;5094744;28;20321;-80
2021/06/18 03:05:15;;;;;;;;;;;21.10;99.90;;;;;;5094882;28;20332;-80
2021/06/18 03:07:44;;;;;;;;;;;20.90;99.90;;;;;;5094340;28;20351;-79
2021/06/18 03:10:15;;;;;;;;;;;20.90;99.90;;;;;;5099622;28;20278;-79
2021/06/18 03:12:41;;;;;;;;;;;21.00;99.90;;;;;;5095522;28;19908;-79
2021/06/18 03:15:08;;;;;;;;;;;20.90;99.90;;;;;;5095100;28;20429;-80
2021/06/18 03:17:36;;;;;;;;;;;20.90;99.90;;;;;;5100734;28;19939;-80
2021/06/18 03:20:06;;;;;;;;;;;20.80;99.90;;;;;;5097518;28;19916;-80
2021/06/18 03:22:33;;;;;;;;;;;20.80;99.90;;;;;;5097193;28;19908;-80
2021/06/18 03:25:01;;;;;;;;;;;20.70;99.90;;;;;;5096123;28;20363;-81
2021/06/18 03:27:28;;;;;;;;;;;20.70;99.90;;;;;;5098019;28;19912;-81
2021/06/18 03:29:54;;;;;;;;;;;20.80;99.90;;;;;;5098105;28;19912;-80
2021/06/18 03:32:20;;;;;;;;;;;20.80;99.90;;;;;;5097224;28;19908;-81
2021/06/18 03:34:46;;;;;;;;;;;20.80;99.90;;;;;;5095928;28;19912;-80
2021/06/18 03:37:12;;;;;;;;;;;20.70;99.90;;;;;;5096009;28;20260;-80
2021/06/18 03:39:37;;;;;;;;;;;20.70;99.90;;;;;;5097904;28;19968;-80
2021/06/18 03:42:03;;;;;;;;;;;20.90;99.90;;;;;;5096541;28;19941;-80
2021/06/18 03:44:29;;;;;;;;;;;21.00;99.90;;;;;;5097808;28;20264;-80
2021/06/18 03:46:55;;;;;;;;;;;21.10;99.90;;;;;;5094653;28;19962;-80
2021/06/18 03:49:22;;;;;;;;;;;21.10;99.90;;;;;;5095141;28;20332;-80
2021/06/18 03:51:48;;;;;;;;;;;21.10;99.90;;;;;;5095800;28;19919;-80
2021/06/18 03:54:13;;;;;;;;;;;21.20;99.90;;;;;;5094590;28;20317;-81
2021/06/18 03:56:42;;;;;;;;;;;21.10;99.90;;;;;;5094363;28;20049;-80
2021/06/18 03:59:08;;;;;;;;;;;21.10;99.90;;;;;;5094330;28;19919;-80
2021/06/18 04:01:36;;;;;;;;;;;21.00;99.90;;;;;;5094889;28;20333;-80
2021/06/18 04:04:03;;;;;;;;;;;21.00;99.90;;;;;;5094585;28;19908;-80
2021/06/18 04:06:29;;;;;;;;;;;21.00;99.90;;;;;;5094677;28;19910;-80
2021/06/18 04:08:55;;;;;;;;;;;21.10;99.90;;;;;;5093966;28;19909;-80
2021/06/18 04:11:20;;;;;;;;;;;21.10;99.90;;;;;;5081099;28;19920;-80
2021/06/18 04:13:47;;;;;;;;;;;21.20;99.90;;;;;;5074982;28;19985;-81
2021/06/18 04:16:12;;;;;;;;;;;21.20;99.90;;;;;;5074982;28;20428;-81
2021/06/18 04:18:42;;;;;;;;;;;21.30;99.90;;;;;;5074528;28;19908;-81
2021/06/18 04:21:10;;;;;;;;;;;21.30;99.90;;;;;;5074901;28;20371;-80
2021/06/18 04:23:36;;;;;;;;;;;21.50;99.90;;;;;;5076186;28;19909;-80
2021/06/18 04:26:01;;;;;;;;;;;21.60;99.90;;;;;;5076237;28;19904;-80
2021/06/18 04:28:28;;;;;;;;;;;21.60;99.90;;;;;;5089690;28;19912;-80
2021/06/18 04:30:53;;;;;;;;;;;21.60;99.90;;;;;;5089419;28;19908;-81
2021/06/18 04:33:19;;;;;;;;;;;21.60;99.90;;;;;;5081668;28;19938;-81
2021/06/18 04:35:44;;;;;;;;;;;21.80;99.90;;;;;;5080055;28;20359;-82
2021/06/18 04:38:10;;;;;;;;;;;21.80;99.90;;;;;;5077974;28;19912;-82
2021/06/18 04:40:36;;;;;;;;;;;22.10;99.90;;;;;;5079632;28;20375;-83
2021/06/18 04:43:02;;;;;;;;;;;23.30;99.90;;;;;;5078540;28;19912;-82
2021/06/18 04:45:27;;;;;;;;;;;24.50;99.90;;;;;;5077126;28;20279;-82
2021/06/18 04:47:55;;;;;;;;;;;24.20;99.90;;;;;;5076888;28;19904;-82
2021/06/18 04:50:20;;;;;;;8.65;5.50;;;24.10;99.90;;;;;;5096712;28;19908;-81
2021/06/18 04:52:47;;;;;;;;;;;25.50;99.90;;;;;;5096456;28;20148;-82
2021/06/18 04:55:17;;;;;;;4.70;3.90;;;26.90;99.90;;;;;;5094129;28;20042;-83
2021/06/18 04:57:47;;;;;;;;;;;26.60;99.90;;;;;;5086314;28;20082;-81
2021/06/18 05:00:14;;;;;;;7.20;4.20;;;26.70;99.90;;;;;;5082714;28;20043;-80
2021/06/18 05:02:39;;;;;;;4.50;3.88;;;26.20;99.90;;;;;;5101752;28;20042;-82
2021/06/18 05:05:05;;;;;;;5.15;3.95;;;25.70;99.90;;;;;;5088386;28;19975;-82
2021/06/18 05:07:31;;;;;;;;;;;25.20;99.90;;;;;;5081180;28;20028;-84
2021/06/18 05:09:56;;;;;;;;;;;24.70;99.90;;;;;;5079663;28;20090;-83
2021/06/18 05:12:22;;;;;;;4.70;3.90;;;24.60;99.90;;;;;;5082694;28;20035;-82
2021/06/18 05:14:48;;;;;;;5.15;4.15;;;24.80;99.90;;;;;;5080891;28;20036;-83
2021/06/18 05:17:13;;;;;;;5.95;5.15;;;25.10;99.90;;;;;;5080677;28;20445;-83
2021/06/18 05:19:39;;;;;;;6.20;4.30;;;25.70;99.90;;;;;;5079168;28;20064;-81
2021/06/18 05:22:04;;;;;;;;;;;26.00;99.90;;;;;;5081769;28;20003;-82
2021/06/18 05:24:30;;;;;;;;;;;25.80;99.90;;;;;;5082790;28;20040;-83
2021/06/18 05:26:55;;;;;;;;;;;25.80;99.90;;;;;;5081449;28;20061;-82
2021/06/18 05:29:21;;;;;;;;;;;25.80;99.90;;;;;;5077296;28;20495;-85
2021/06/18 05:31:46;;;;;;;;;;;25.80;99.90;;;;;;5076243;28;20183;-81
2021/06/18 05:34:12;;;;;;;;;;;25.80;99.90;;;;;;5074444;28;20122;-81
2021/06/18 05:36:39;;;;;;;;;;;25.90;99.90;;;;;;5076863;28;20061;-83
2021/06/18 05:39:04;;;;;;;;;;;26.00;99.90;;;;;;5079804;28;20032;-81
2021/06/18 05:41:30;;;;;;;;;;;26.00;99.90;;;;;;5080650;28;20081;-81
2021/06/18 05:43:55;;;;;;;;;;;26.20;99.90;;;;;;5080492;28;20058;-82
2021/06/18 05:46:21;;;;;;;;;;;26.40;99.90;;;;;;5080210;28;20104;-83
2021/06/18 05:48:46;;;;;;;;;;;26.60;99.90;;;;;;5078684;28;20036;-83
2021/06/18 05:51:12;;;;;;;;;;;26.80;99.90;;;;;;5079008;28;20033;-82
2021/06/18 05:53:37;;;;;;;;;;;27.00;99.90;;;;;;5079313;28;20333;-82
2021/06/18 05:56:03;;;;;;;;;;;27.10;99.90;;;;;;5078250;28;20557;-83
2021/06/18 05:58:28;;;;;;;;;;;27.50;99.90;;;;;;5077860;28;20453;-82
2021/06/18 06:00:54;;;;;;;;;;;28.30;99.90;;;;;;5079496;28;20067;-83
2021/06/18 06:03:19;;;;;;;;;;;28.90;99.90;;;;;;5077040;28;20484;-83
2021/06/18 06:05:45;;;;;;;;;;;28.80;99.90;;;;;;5078827;28;20219;-83
2021/06/18 06:08:11;;;;;;;;;;;28.70;99.90;;;;;;5077180;28;20050;-83
2021/06/18 06:10:36;;;;;;;;;;;30.40;99.90;;;;;;5077401;28;20043;-82
2021/06/18 06:13:02;;;;;;;;;;;31.80;99.90;;;;;;5077653;28;20040;-80
2021/06/18 06:15:27;;;;;;;;;;;31.00;99.90;;;;;;5077723;28;20050;-82
2021/06/18 06:17:53;;;;;;;;;;;30.40;99.90;;;;;;5079435;28;20039;-83
2021/06/18 06:20:18;;;;;;;;;;;30.10;99.90;;;;;;5078306;28;20028;-82
2021/06/18 06:22:44;;;;;;;;;;;30.40;99.90;;;;;;5077907;28;20039;-82
2021/06/18 06:25:10;;;;;;;;;;;31.70;99.90;;;;;;5078551;28;20043;-83
2021/06/18 06:27:35;;;;;;;;;;;32.50;99.90;;;;;;5079460;28;20036;-81
2021/06/18 06:30:01;;;;;;;;;;;33.70;99.90;;;;;;5078308;28;20036;-81
2021/06/18 06:32:26;;;;;;;;;;;34.90;96.90;;;;;;5079803;28;20040;-83
2021/06/18 06:34:51;;;;;;;;;;;36.10;94.30;;;;;;5078746;28;20067;-83
2021/06/18 06:37:17;;;;;;;;;;;36.80;93.90;;;;;;5078850;28;20064;-82
2021/06/18 06:39:43;;;;;;;5.60;3.80;;;37.00;91.60;;;;;;5077737;28;20063;-82
2021/06/18 06:42:08;;;;;;;6.70;4.00;;;36.80;90.60;;;;;;5077224;28;20050;-83
2021/06/18 06:44:34;;;;;;;7.87;4.33;;;37.50;90.50;;;;;;5076925;28;20394;-83
2021/06/18 06:46:59;;;;;;;;;;;38.20;89.00;;;;;;5077236;28;20119;-82
2021/06/18 06:49:25;;;;;;;7.93;5.20;;;38.60;86.30;;;;;;5078042;28;20408;-82
2021/06/18 06:51:51;;;;;;;7.77;4.00;;;39.10;84.20;;;;;;5078497;28;19974;-83
2021/06/18 06:54:17;;;;;;;;;;;39.30;78.80;;;;;;5079172;28;20039;-83
2021/06/18 06:56:42;;;;;;;6.15;4.10;;;39.40;77.80;;;;;;5077962;28;19904;-83
2021/06/18 06:59:08;;;;;;;13.25;4.93;;;39.30;78.30;;;;;;5077652;28;20043;-84
2021/06/18 07:01:33;;;;;;;4.23;3.70;;;39.40;77.60;;;;;;5080780;28;19957;-84
2021/06/18 07:04:00;;;;;;;6.18;3.80;;;39.40;79.40;;;;;;5080256;28;19964;-82
2021/06/18 07:06:27;;;;;;;6.68;3.75;;;37.80;76.70;;;;;;5080363;28;19908;-83
2021/06/18 07:08:52;;;;;;;3.53;3.23;;;37.10;79.80;;;;;;5079249;28;20029;-84
2021/06/18 07:11:18;;;;;;;5.97;3.45;;;36.80;80.00;;;;;;5079752;28;19931;-83
2021/06/18 07:13:43;;;;;;;8.18;3.50;;;35.70;79.60;;;;;;5080653;28;19905;-83
2021/06/18 07:16:11;;;;;;;5.70;4.30;;;35.50;82.00;;;;;;5081034;28;19904;-83
2021/06/18 07:18:36;;;;;;;;;;;34.80;84.80;;;;;;5080490;28;20090;-83
2021/06/18 07:21:02;;;;;;;;;;;34.40;84.80;;;;;;5081199;28;20519;-84
2021/06/18 07:23:28;;;;;;;3.70;3.40;;;34.30;85.30;;;;;;5081470;28;20046;-84
2021/06/18 07:25:53;;;;;;;;;;;34.30;87.60;;;;;;5081526;28;20050;-83
2021/06/18 07:28:19;;;;;;;;;;;33.60;90.10;;;;;;5080649;28;20051;-83
2021/06/18 07:30:44;;;;;;;;;;;33.70;88.70;;;;;;5081789;28;20328;-84
2021/06/18 07:33:10;;;;;;;4.90;3.65;;;33.80;90.60;;;;;;5080241;28;20507;-83
2021/06/18 07:35:36;;;;;;;;;;;34.30;85.30;;;;;;5076320;28;20049;-82
2021/06/18 07:38:02;;;;;;;;;;;34.70;84.10;;;;;;5083491;28;20040;-82
2021/06/18 07:40:27;;;;;;;;;;;34.80;82.50;;;;;;5082867;28;20051;-83
2021/06/18 07:42:53;;;;;;;;;;;35.10;82.60;;;;;;5082703;28;20053;-82
2021/06/18 07:45:18;;;;;;;;;;;36.10;84.60;;;;;;5082354;28;20036;-81
2021/06/18 07:47:44;;;;;;;;;;;36.10;81.00;;;;;;5083509;28;20054;-80
2021/06/18 07:50:10;;;;;;;;;;;35.00;86.00;;;;;;5081775;28;20116;-81
2021/06/18 07:52:36;;;;;;;;;;;34.00;87.50;;;;;;5080194;28;19909;-82
2021/06/18 07:55:04;;;;;;;8.57;3.97;;;33.40;86.90;;;;;;5082230;28;19947;-83
2021/06/18 07:57:29;;;;;;;;;;;32.90;89.40;;;;;;5080913;28;20102;-83
2021/06/18 07:59:55;;;;;;;;;;;33.20;90.50;;;;;;5081743;28;20049;-82
2021/06/18 08:02:20;;;;;;;;;;;33.10;88.00;;;;;;5081427;28;20043;-84
2021/06/18 08:04:46;;;;;;;;;;;32.70;91.30;;;;;;5082611;28;20096;-83
2021/06/18 08:07:11;;;;;;;;;;;32.40;92.40;;;;;;5080982;28;20033;-83
2021/06/18 08:09:37;;;;;;;;;;;32.50;91.10;;;;;;5081237;28;20071;-82
2021/06/18 08:12:02;;;;;;;;;;;32.10;91.50;;;;;;5078859;28;20256;-82
2021/06/18 08:14:29;;;;;;;;;;;32.60;91.80;;;;;;5080012;28;19904;-82
2021/06/18 08:16:54;;;;;;;;;;;32.60;91.20;;;;;;5081183;28;19905;-82
2021/06/18 08:19:20;;;;;;;;;;;32.70;92.70;;;;;;5081916;28;19935;-83
2021/06/18 08:21:45;;;;;;;;;;;32.80;90.70;;;;;;5080743;28;20322;-83
2021/06/18 08:24:11;;;;;;;;;;;33.40;89.70;;;;;;5081577;28;19995;-84
2021/06/18 08:26:36;;;;;;;;;;;34.20;92.60;;;;;;5079458;28;19915;-83
2021/06/18 08:29:02;;;;;;;;;;;33.60;88.80;;;;;;5080611;28;20090;-81
2021/06/18 08:31:27;;;;;;;;;;;33.50;92.80;;;;;;5079247;28;19920;-82
2021/06/18 08:33:53;;;;;;;;;;;33.70;91.40;;;;;;5079302;28;19911;-82
2021/06/18 08:36:18;;;;;;;;;;;33.70;90.80;;;;;;5076155;28;20016;-84
2021/06/18 08:38:44;;;;;;;;;;;34.10;90.80;;;;;;5077820;28;19915;-83
2021/06/18 08:41:10;;;;;;;;;;;34.60;90.10;;;;;;5077989;28;20049;-83
2021/06/18 08:43:35;;;;;;;;;;;34.70;91.40;;;;;;5078266;28;20052;-82
2021/06/18 08:46:02;;;;;;;;;;;35.10;90.30;;;;;;5075589;28;20039;-82
2021/06/18 08:48:29;;;;;;;;;;;35.20;90.50;;;;;;5077147;28;20036;-82
2021/06/18 08:50:54;;;;;;;;;;;35.00;90.60;;;;;;5075036;28;20031;-80
2021/06/18 08:53:21;;;;;;;;;;;35.60;89.30;;;;;;5075516;28;20021;-81
2021/06/18 08:55:46;;;;;;;6.10;4.80;;;36.10;87.10;;;;;;5074690;28;20057;-82
2021/06/18 08:58:12;;;;;;;7.07;5.53;;;36.60;88.30;;;;;;5074595;28;20062;-80
2021/06/18 09:00:37;;;;;;;5.55;5.05;;;36.60;84.50;;;;;;5074293;28;19905;-81
2021/06/18 09:03:35;;;;;;;5.68;5.15;;;36.50;81.70;;;;;;5073759;28;20154;-82
2021/06/18 09:06:03;;;;;;;6.63;4.22;;;35.90;88.80;;;;;;5073858;28;20029;-81
2021/06/18 09:08:28;;;;;;;;;;;35.20;83.10;;;;;;5073300;28;20373;-82
2021/06/18 09:10:53;;;;;;;;;;;35.00;88.30;;;;;;5074723;28;19916;-82
2021/06/18 09:13:19;;;;;;;;;;;34.40;86.60;;;;;;5074534;28;20058;-81
2021/06/18 09:15:46;;;;;;;;;;;34.50;88.30;;;;;;5074396;28;20433;-81
2021/06/18 09:18:22;;;;;;;;;;;34.80;85.80;;;;;;5074022;28;20036;-84
2021/06/18 09:20:48;;;;;;;;;;;34.90;82.30;;;;;;5074574;28;20038;-80
2021/06/18 09:23:41;;;;;;;4.68;4.28;;;35.50;87.20;;;;;;5075252;28;20152;-81
2021/06/18 09:26:24;;;;;;;5.32;4.63;;;35.70;85.10;;;;;;5074640;28;20074;-80
2021/06/18 09:29:11;;;;;;;7.95;4.88;;;35.60;82.90;;;;;;5077531;28;20017;-80
2021/06/18 09:31:55;;;;;;;;;;;35.10;84.90;;;;;;5075678;28;20028;-81
2021/06/18 09:34:35;;;;;;;;;;;35.10;84.90;;;;;;5075665;28;20043;-81
2021/06/18 09:37:14;;;;;;;;;;;35.10;88.20;;;;;;5075481;28;20035;-81
2021/06/18 09:40:16;;;;;;;;;;;35.60;82.80;;;;;;5075705;28;20099;-82
2021/06/18 09:42:44;;;;;;;;;;;35.20;89.80;;;;;;5016295;28;20063;-83
2021/06/18 09:45:14;;;;;;;;;;;35.00;87.10;;;;;;5062261;28;20036;-82
2021/06/18 09:47:40;;;;;;;;;;;34.80;90.70;;;;;;5076372;28;20522;-82
2021/06/18 09:50:25;;;;;;;5.30;4.80;;;35.10;84.20;;;;;;5074020;28;20036;-82
2021/06/18 09:52:50;;;;;;;8.20;4.90;;;35.00;87.70;;;;;;5075168;28;20410;-82
2021/06/18 09:55:20;;;;;;;;;;;35.20;85.20;;;;;;5075279;28;20043;-80
2021/06/18 09:57:53;;;;;;;;;;;34.70;89.70;;;;;;5074214;28;20039;-81
2021/06/18 10:00:18;;;;;;;;;;;34.60;86.90;;;;;;5073759;28;20036;-80
2021/06/18 10:02:45;;;;;;;;;;;34.50;86.20;;;;;;5072559;28;20065;-81
2021/06/18 10:05:11;;;;;;;;;;;34.50;86.40;;;;;;5075524;28;20050;-81
2021/06/18 10:07:37;;;;;;;;;;;34.50;87.10;;;;;;5076840;28;20126;-81
2021/06/18 10:10:04;;;;;;;;;;;34.90;87.50;;;;;;5072685;28;20043;-82
2021/06/18 10:12:30;;;;;;;;;;;35.10;88.70;;;;;;5078729;28;20487;-82
2021/06/18 10:14:56;;;;;;;;;;;35.40;88.60;;;;;;5092880;28;20080;-81
2021/06/18 10:17:22;;;;;;;;;;;35.20;88.10;;;;;;5095612;28;20509;-82
2021/06/18 10:19:47;;;;;;;;;;;35.20;88.60;;;;;;5093474;28;19908;-80
2021/06/18 10:22:14;;;;;;;;;;;35.10;89.10;;;;;;5096667;28;20056;-82
2021/06/18 10:24:50;;;;;;;;;;;35.10;87.90;;;;;;5092688;28;20122;-80
2021/06/18 10:27:19;;;;;;;;;;;35.70;86.70;;;;;;5093352;28;20141;-81
2021/06/18 10:29:44;;;;;;;6.55;5.00;;;36.50;90.70;;;;;;5095576;28;20474;-80
2021/06/18 10:32:37;;;;;;;7.55;4.75;;;36.90;84.50;;;;;;5092536;28;19911;-81
2021/06/18 10:35:04;;;;;;;5.28;4.78;;;37.50;84.90;;;;;;5095402;28;20107;-82
2021/06/18 10:37:32;;;;;;;6.03;5.13;;;38.20;85.20;;;;;;5098064;28;20060;-80
2021/06/18 10:40:09;;;;;;;5.95;5.45;;;38.20;83.80;;;;;;5096247;28;20556;-82
2021/06/18 10:42:34;;;;;;;5.63;4.95;;;38.20;82.00;;;;;;5096576;28;20445;-81
2021/06/18 10:45:00;;;;;;;;;;;38.00;82.20;;;;;;5098597;28;19912;-81
2021/06/18 10:47:30;;;;;;;5.25;4.85;;;37.50;79.80;;;;;;5096346;28;19903;-81
2021/06/18 10:49:56;;;;;;;5.60;4.85;;;37.70;88.70;;;;;;5096383;28;19930;-82
2021/06/18 10:52:34;;;;;;;5.30;4.80;;;37.70;81.80;;;;;;5096314;28;20419;-83
2021/06/18 10:54:59;;;;;;;5.25;4.75;;;37.90;78.70;;;;;;5096983;28;19904;-83
2021/06/18 10:57:26;;;;;;;;;;;36.80;79.20;;;;;;5098779;28;20381;-80
2021/06/18 10:59:59;;;;;;;7.15;5.80;;;36.20;86.30;;;;;;5098724;28;19904;-80
2021/06/18 11:02:30;;;;;;;6.15;5.05;;;35.90;87.00;;;;;;5097526;28;20063;-82
2021/06/18 11:05:22;;;;;;;6.03;5.38;;;35.60;88.50;;;;;;5099334;28;20051;-81
2021/06/18 11:07:47;;;;;;;6.20;5.20;;;35.30;87.20;;;;;;5086741;28;20510;-82
2021/06/18 11:10:26;;;;;;;7.93;4.83;;;34.70;84.50;;;;;;5096910;28;20054;-81
2021/06/18 11:13:02;;;;;;;;;;;34.90;90.50;;;;;;5097992;28;20220;-81
2021/06/18 11:15:27;;;;;;;;;;;35.30;88.60;;;;;;5097838;28;20039;-80
2021/06/18 11:18:01;;;;;;;;;;;35.70;90.90;;;;;;5099961;28;20054;-81
2021/06/18 11:20:33;;;;;;;;;;;36.10;87.70;;;;;;5097900;28;20025;-82
2021/06/18 11:23:06;;;;;;;;;;;35.80;86.60;;;;;;5096458;28;20551;-81
2021/06/18 11:25:31;;;;;;;;;;;35.70;90.00;;;;;;5099108;28;20129;-81
2021/06/18 11:28:15;;;;;;;;;;;35.70;86.60;;;;;;5099006;28;20503;-81
2021/06/18 11:31:01;;;;;;;;;;;36.10;88.50;;;;;;5098042;28;20532;-79
2021/06/18 11:33:39;;;;;;;;;;;36.30;88.10;;;;;;5098304;28;20039;-81
2021/06/18 11:36:08;;;;;;;;;;;36.40;86.60;;;;;;5097747;28;19904;-80
2021/06/18 11:38:35;;;;;;;;;;;36.50;86.20;;;;;;5099096;28;20031;-81
2021/06/18 11:41:04;;;;;;;;;;;36.60;82.90;;;;;;5097715;28;20510;-80
2021/06/18 11:43:30;;;;;;;;;;;36.80;84.10;;;;;;5095921;28;20112;-81
2021/06/18 11:45:56;;;;;;;;;;;36.60;85.50;;;;;;5096881;28;20042;-81
2021/06/18 11:48:22;;;;;;;;;;;36.80;84.60;;;;;;5097945;28;20063;-80
2021/06/18 11:50:48;;;;;;;;;;;37.00;85.80;;;;;;5098189;28;20096;-82
2021/06/18 11:53:14;;;;;;;;;;;36.70;82.90;;;;;;5098455;28;20034;-81
2021/06/18 11:55:40;;;;;;;;;;;37.00;83.70;;;;;;5099587;28;20039;-81
2021/06/18 11:58:06;;;;;;;;;;;37.50;81.10;;;;;;5099797;28;19904;-81
2021/06/18 12:00:32;;;;;;;;;;;37.10;82.70;;;;;;5100013;28;20035;-80
2021/06/18 12:02:58;;;;;;;;;;;37.00;85.00;;;;;;5099056;28;20054;-79
2021/06/18 12:05:28;;;;;;;;;;;36.80;83.10;;;;;;5098596;28;20237;-80
2021/06/18 12:07:54;;;;;;;;;;;36.40;83.90;;;;;;5098400;28;20035;-81
2021/06/18 12:10:21;;;;;;;;;;;36.20;85.10;;;;;;5096525;28;20052;-81
2021/06/18 12:12:47;;;;;;;;;;;36.40;86.50;;;;;;5099935;28;20031;-80
2021/06/18 12:15:32;;;;;;;;;;;36.30;87.70;;;;;;5100725;28;20034;-80
2021/06/18 12:17:59;;;;;;;;;;;36.20;86.70;;;;;;5101256;28;20032;-81
2021/06/18 12:20:35;;;;;;;;;;;36.20;85.00;;;;;;5098914;28;20043;-81
2021/06/18 12:23:01;;;;;;;;;;;36.20;86.70;;;;;;5101906;28;20035;-81
2021/06/18 12:25:27;;;;;;;;;;;36.30;88.60;;;;;;5099206;28;20270;-80
2021/06/18 12:27:58;;;;;;;6.10;4.55;;;36.20;84.50;;;;;;5101692;28;20032;-80
2021/06/18 12:30:24;;;;;;;;;;;36.00;84.40;;;;;;5100599;28;20076;-81
2021/06/18 12:32:50;;;;;;;;;;;35.90;86.30;;;;;;5101026;28;20406;-79
2021/06/18 12:35:17;;;;;;;;;;;35.80;87.20;;;;;;5102520;28;20095;-81
2021/06/18 12:37:47;;;;;;;;;;;35.80;87.50;;;;;;5100854;28;20101;-80
2021/06/18 12:40:14;;;;;;;;;;;35.80;83.40;;;;;;5099772;28;20083;-80
2021/06/18 12:42:46;;;;;;;;;;;35.90;84.40;;;;;;5099357;28;20038;-81
2021/06/18 12:45:17;;;;;;;;;;;36.00;84.20;;;;;;5097275;28;20115;-81
2021/06/18 12:47:44;;;;;;;;;;;36.20;82.80;;;;;;5096817;28;20042;-80
2021/06/18 12:50:33;;;;;;;;;;;36.20;77.60;;;;;;5098980;28;20046;-80
2021/06/18 12:53:06;;;;;;;;;;;36.00;76.30;;;;;;5052245;28;20058;-81
2021/06/18 12:55:34;;;;;;;;;;;35.90;85.40;;;;;;5098826;28;20099;-81
2021/06/18 12:58:08;;;;;;;;;;;36.00;80.00;;;;;;5096197;28;20551;-80
2021/06/18 13:00:41;;;;;;;;;;;36.10;80.00;;;;;;5097613;28;20046;-79
2021/06/18 13:03:07;;;;;;;;;;;36.10;80.40;;;;;;5098254;28;20377;-80
2021/06/18 13:05:32;;;;;;;;;;;35.90;78.70;;;;;;5097514;28;20098;-81
2021/06/18 13:07:58;;;;;;;;;;;36.20;80.90;;;;;;5097494;28;20031;-80
2021/06/18 13:10:35;;;;;;;;;;;36.20;81.10;;;;;;5097883;28;20040;-81
2021/06/18 13:13:01;;;;;;;;;;;36.00;78.00;;;;;;5097157;28;20030;-81
2021/06/18 13:15:27;;;;;;;;;;;36.10;77.50;;;;;;5098542;28;20028;-80
2021/06/18 13:17:54;;;;;;;;;;;36.00;76.20;;;;;;5094098;28;20034;-82
2021/06/18 13:20:29;;;;;;;;;;;35.90;78.60;;;;;;5091792;28;20064;-83
2021/06/18 13:22:55;;;;;;;;;;;35.50;75.20;;;;;;5093761;28;20027;-81
2021/06/18 13:25:26;;;;;;;;;;;35.80;76.80;;;;;;5092759;28;20512;-82
2021/06/18 13:27:52;;;;;;;;;;;35.90;82.40;;;;;;5093223;28;20105;-83
2021/06/18 13:30:17;;;;;;;;;;;36.00;81.10;;;;;;5092825;28;20114;-83
2021/06/18 13:32:44;;;;;;;;;;;35.70;81.10;;;;;;5094089;28;20038;-82
2021/06/18 13:35:12;;;;;;;;;;;35.90;78.60;;;;;;5093521;28;20020;-81
2021/06/18 13:37:38;;;;;;;;;;;36.10;81.70;;;;;;5094395;28;20028;-82
2021/06/18 13:40:30;;;;;;;;;;;36.20;80.90;;;;;;5094083;28;20104;-84
2021/06/18 13:42:55;;;;;;;;;;;36.10;81.50;;;;;;5092448;28;20469;-83
2021/06/18 13:45:21;;;;;;;;;;;35.90;78.70;;;;;;5094006;28;19951;-82
2021/06/18 13:47:52;;;;;;;;;;;35.90;81.20;;;;;;5093922;28;20030;-82
2021/06/18 13:50:17;;;;;;;;;;;35.90;78.50;;;;;;5093348;28;20024;-83
2021/06/18 13:52:45;;;;;;;;;;;36.00;75.90;;;;;;5093059;28;20447;-80
2021/06/18 13:55:11;;;;;;;;;;;36.00;75.90;;;;;;5092423;28;20037;-84
2021/06/18 13:57:36;;;;;;;;;;;36.10;73.60;;;;;;5091969;28;20055;-81
2021/06/18 14:00:02;;;;;;;;;;;36.00;81.40;;;;;;5091270;28;20036;-81
2021/06/18 14:02:28;;;;;;;;;;;35.80;76.80;;;;;;5091222;28;19908;-82
2021/06/18 14:04:54;;;;;;;;;;;35.70;74.30;;;;;;5093028;28;20114;-81